Time;durP1;ratioP1;P1;durP2;ratioP2;P2;SDS_P1;SDS_P2;PMS_P1;PMS_P2;Temp;Humidity;BMP_temperature;BMP_pressure;BME280_temperature;BME280_humidity;BME280_pressure;Samples;Min_cycle;Max_cycle;Signal;HPM_P1;HPM_P2
2022/06/17 00:02:11;;;;;;;1.33;1.23;;;13.90;34.50;;;;;;5047304;28;20967;-52
2022/06/17 00:04:38;;;;;;;1.47;1.30;;;13.90;33.90;;;;;;5047556;28;20497;-53
2022/06/17 00:07:07;;;;;;;1.50;1.40;;;13.90;29.00;;;;;;5043144;28;20549;-53
2022/06/17 00:09:36;;;;;;;1.50;1.40;;;13.90;99.90;;;;;;5042654;28;20505;-53
2022/06/17 00:12:04;;;;;;;1.53;1.20;;;13.80;27.30;;;;;;5042488;28;20495;-53
2022/06/17 00:15:11;;;;;;;2.30;1.40;;;13.80;28.90;;;;;;5048660;28;20516;-54
2022/06/17 00:17:22;;;;;;;1.57;1.43;;;13.70;24.90;;;;;;5038061;28;20462;-54
2022/06/17 00:19:48;;;;;;;1.93;1.80;;;13.70;20.70;;;;;;5042023;28;20899;-53
2022/06/17 00:22:15;;;;;;;1.87;1.70;;;13.70;23.20;;;;;;5043855;28;20498;-54
2022/06/17 00:24:41;;;;;;;2.50;1.90;;;13.60;99.90;;;;;;5049665;28;20870;-54
2022/06/17 00:27:10;;;;;;;2.37;2.00;;;13.60;99.90;;;;;;5044324;28;20469;-52
2022/06/17 00:29:38;;;;;;;4.13;2.20;;;13.50;99.90;;;;;;5042037;28;20517;-53
2022/06/17 00:32:06;;;;;;;7.13;2.03;;;13.50;99.90;;;;;;5047041;28;21342;-53
2022/06/17 00:34:33;;;;;;;1.80;1.70;;;13.60;99.90;;;;;;5046436;28;20536;-54
2022/06/17 00:37:01;;;;;;;3.67;1.70;;;13.50;99.90;;;;;;5047179;28;20496;-53
2022/06/17 00:39:31;;;;;;;1.63;1.43;;;13.50;99.90;;;;;;5040429;28;20493;-54
2022/06/17 00:42:04;;;;;;;2.40;1.67;;;13.50;99.90;;;;;;5045596;28;20513;-54
2022/06/17 00:44:37;;;;;;;2.23;1.70;;;13.40;99.90;;;;;;5041664;28;20488;-52
2022/06/17 00:47:15;;;;;;;1.97;1.80;;;13.40;99.90;;;;;;5040427;28;21077;-53
2022/06/17 00:49:46;;;;;;;2.63;1.63;;;13.30;99.90;;;;;;5037778;28;20512;-55
2022/06/17 00:52:21;;;;;;;4.17;2.10;;;13.30;99.90;;;;;;5043774;28;20497;-53
2022/06/17 00:54:53;;;;;;;1.40;1.40;;;13.40;99.90;;;;;;5042950;28;20509;-53
2022/06/17 00:57:24;;;;;;;8.43;1.47;;;13.40;99.90;;;;;;5047246;28;20489;-53
2022/06/17 01:00:19;;;;;;;1.87;1.70;;;13.40;99.90;;;;;;5034896;28;20518;-53
2022/06/17 01:02:49;;;;;;;1.50;1.40;;;13.40;99.90;;;;;;5011979;28;20904;-54
2022/06/17 01:05:19;;;;;;;1.77;1.67;;;13.40;99.90;;;;;;5046715;28;20458;-53
2022/06/17 01:07:49;;;;;;;5.03;1.80;;;13.40;99.90;;;;;;5035111;28;20496;-53
2022/06/17 01:10:16;;;;;;;2.50;1.67;;;13.40;99.90;;;;;;5039949;28;20525;-53
2022/06/17 01:12:50;;;;;;;2.00;1.53;;;13.40;99.90;;;;;;5045948;28;20457;-54
2022/06/17 01:15:19;;;;;;;3.43;1.50;;;13.30;99.90;;;;;;5044678;28;20497;-53
2022/06/17 01:17:48;;;;;;;3.83;1.73;;;13.20;99.90;;;;;;5041491;28;20495;-53
2022/06/17 01:20:16;;;;;;;1.77;1.67;;;13.20;99.90;;;;;;5044676;28;20521;-52
2022/06/17 01:22:45;;;;;;;1.87;1.60;;;13.20;99.90;;;;;;5038795;28;21213;-53
2022/06/17 01:25:15;;;;;;;4.00;1.50;;;13.20;99.90;;;;;;5037696;28;20490;-53
2022/06/17 01:27:44;;;;;;;2.13;1.40;;;13.10;99.90;;;;;;5045391;28;20458;-53
2022/06/17 01:30:14;;;;;;;3.63;1.50;;;13.10;99.90;;;;;;5044321;28;20518;-54
2022/06/17 01:32:45;;;;;;;3.07;1.17;;;13.10;99.90;;;;;;5045981;28;20592;-53
2022/06/17 01:35:13;;;;;;;1.93;1.50;;;13.00;99.90;;;;;;5042033;28;20489;-51
2022/06/17 01:37:39;;;;;;;2.00;1.20;;;13.10;99.90;;;;;;5040789;28;20540;-53
2022/06/17 01:40:09;;;;;;;3.73;1.40;;;13.00;99.90;;;;;;5051619;28;20516;-54
2022/06/17 01:42:37;;;;;;;2.80;1.60;;;12.90;99.90;;;;;;5044987;28;20903;-53
2022/06/17 01:45:05;;;;;;;2.40;2.20;;;12.90;99.90;;;;;;5043203;28;20545;-53
2022/06/17 01:47:33;;;;;;;1.50;1.40;;;12.80;99.90;;;;;;5038172;28;20504;-53
2022/06/17 01:50:04;;;;;;;1.07;1.07;;;12.80;99.90;;;;;;5045862;28;20505;-54
2022/06/17 01:52:35;;;;;;;2.80;1.50;;;12.80;99.90;;;;;;5044329;28;20490;-52
2022/06/17 01:55:07;;;;;;;4.40;1.67;;;12.90;99.90;;;;;;5041101;28;20549;-54
2022/06/17 01:57:39;;;;;;;4.50;1.70;;;12.70;99.90;;;;;;5043844;28;20552;-53
2022/06/17 02:00:11;;;;;;;2.30;1.20;;;12.70;99.90;;;;;;5041363;28;20512;-53
2022/06/17 02:02:40;;;;;;;2.33;1.03;;;12.60;99.90;;;;;;5046450;28;20486;-54
2022/06/17 02:05:10;;;;;;;1.77;1.63;;;12.50;99.90;;;;;;5045876;28;20457;-54
2022/06/17 02:07:42;;;;;;;2.40;1.30;;;12.50;99.90;;;;;;5047513;28;20490;-52
2022/06/17 02:10:10;;;;;;;1.80;1.70;;;12.50;99.90;;;;;;5044614;28;20557;-53
2022/06/17 02:12:38;;;;;;;1.57;1.47;;;12.40;99.90;;;;;;5043369;28;20461;-53
2022/06/17 02:15:06;;;;;;;1.63;1.43;;;12.40;99.90;;;;;;5047596;28;20501;-53
2022/06/17 02:17:39;;;;;;;1.63;1.53;;;12.30;99.90;;;;;;5049379;28;20462;-54
2022/06/17 02:20:08;;;;;;;1.57;1.47;;;12.30;99.90;;;;;;5041569;28;20569;-53
2022/06/17 02:22:36;;;;;;;1.60;1.33;;;12.20;99.90;;;;;;5045608;28;20564;-53
2022/06/17 02:25:07;;;;;;;1.60;1.50;;;12.20;99.90;;;;;;5044684;28;20557;-54
2022/06/17 02:27:36;;;;;;;3.63;1.60;;;12.10;99.90;;;;;;5045406;28;20481;-54
2022/06/17 02:30:05;;;;;;;1.50;1.40;;;12.10;99.90;;;;;;5040769;28;20475;-53
2022/06/17 02:32:33;;;;;;;3.67;1.50;;;12.00;99.90;;;;;;5044251;28;21010;-53
2022/06/17 02:35:01;;;;;;;1.80;1.37;;;12.10;99.90;;;;;;5039966;28;20457;-53
2022/06/17 02:37:29;;;;;;;2.87;1.60;;;11.90;99.90;;;;;;5043024;28;20689;-54
2022/06/17 02:39:59;;;;;;;1.90;1.80;;;11.90;99.90;;;;;;5049893;28;20528;-53
2022/06/17 02:42:28;;;;;;;1.50;1.40;;;11.90;99.90;;;;;;5046705;28;20581;-54
2022/06/17 02:44:58;;;;;;;2.20;1.30;;;11.80;99.90;;;;;;5051693;28;20496;-54
2022/06/17 02:47:27;;;;;;;10.13;1.60;;;11.70;99.90;;;;;;5051012;28;20497;-53
2022/06/17 02:49:54;;;;;;;2.13;1.60;;;11.70;99.90;;;;;;5051725;28;20513;-53
2022/06/17 02:52:28;;;;;;;5.23;2.10;;;11.80;99.90;;;;;;5048078;28;20497;-53
2022/06/17 02:54:59;;;;;;;5.43;1.60;;;11.80;99.90;;;;;;5047657;28;21014;-53
2022/06/17 02:57:29;;;;;;;2.93;1.57;;;11.80;99.90;;;;;;5052397;28;20489;-53
2022/06/17 03:00:02;;;;;;;4.63;1.17;;;11.80;99.90;;;;;;5051562;28;20505;-53
2022/06/17 03:02:33;;;;;;;3.80;1.10;;;11.70;99.90;;;;;;5047262;28;20501;-53
2022/06/17 03:05:00;;;;;;;1.33;1.23;;;11.70;99.90;;;;;;5049849;28;20486;-54
2022/06/17 03:07:30;;;;;;;2.23;1.53;;;11.70;99.90;;;;;;5045129;28;20516;-54
2022/06/17 03:09:57;;;;;;;1.67;1.40;;;11.70;99.90;;;;;;5047887;28;20474;-53
2022/06/17 03:12:26;;;;;;;1.50;1.50;;;11.70;99.90;;;;;;5047694;28;20541;-53
2022/06/17 03:14:59;;;;;;;1.40;1.40;;;11.70;99.90;;;;;;5045189;28;20490;-54
2022/06/17 03:17:26;;;;;;;4.00;1.50;;;11.70;99.90;;;;;;5044759;28;20485;-53
2022/06/17 03:19:57;;;;;;;14.63;1.67;;;11.60;99.90;;;;;;5047066;28;20910;-53
2022/06/17 03:22:25;;;;;;;1.83;1.53;;;11.60;99.90;;;;;;5046694;28;20522;-53
2022/06/17 03:24:58;;;;;;;4.00;1.60;;;11.60;99.90;;;;;;5050106;28;20492;-53
2022/06/17 03:27:30;;;;;;;4.43;2.30;;;11.60;99.90;;;;;;5043869;28;20497;-53
2022/06/17 03:30:00;;;;;;;1.97;1.43;;;11.60;99.90;;;;;;5046236;28;20513;-54
2022/06/17 03:32:31;;;;;;;2.13;1.47;;;11.60;99.90;;;;;;5039007;28;20497;-54
2022/06/17 03:34:59;;;;;;;2.37;1.77;;;11.70;99.90;;;;;;5046930;28;20545;-52
2022/06/17 03:37:30;;;;;;;1.83;1.53;;;11.70;99.90;;;;;;5042252;28;20553;-53
2022/06/17 03:40:03;;;;;;;1.93;1.80;;;11.70;99.90;;;;;;5047563;28;20580;-52
2022/06/17 03:42:32;;;;;;;1.70;1.60;;;11.80;99.90;;;;;;5046877;28;20564;-53
2022/06/17 03:45:03;;;;;;;2.77;1.73;;;11.80;99.90;;;;;;5049094;28;20496;-53
2022/06/17 03:47:43;;;;;;;2.80;1.53;;;11.90;99.90;;;;;;5042634;28;20468;-54
2022/06/17 03:50:21;;;;;;;1.47;1.37;;;11.90;99.90;;;;;;5046148;28;20485;-54
2022/06/17 03:52:53;;;;;;;2.00;1.77;;;12.00;99.90;;;;;;5046362;28;20486;-53
2022/06/17 03:55:21;;;;;;;4.60;1.90;;;12.10;99.90;;;;;;5040089;28;20486;-54
2022/06/17 03:57:51;;;;;;;2.10;1.80;;;12.10;99.90;;;;;;5049468;28;20489;-54
2022/06/17 04:00:23;;;;;;;2.00;1.90;;;12.20;99.90;;;;;;5047889;28;20957;-54
2022/06/17 04:02:51;;;;;;;1.70;1.60;;;12.20;99.90;;;;;;5041599;28;21182;-53
2022/06/17 04:05:21;;;;;;;4.07;1.77;;;12.30;99.90;;;;;;5046385;28;20939;-53
2022/06/17 04:07:48;;;;;;;5.40;2.30;;;12.30;99.90;;;;;;5048694;28;20469;-52
2022/06/17 04:10:17;;;;;;;4.83;2.63;;;12.50;99.90;;;;;;5048369;28;20923;-51
2022/06/17 04:12:47;;;;;;;3.13;2.03;;;12.50;99.90;;;;;;5040849;28;20489;-52
2022/06/17 04:15:23;;;;;;;2.60;2.10;;;12.60;99.90;;;;;;5047437;28;20497;-53
2022/06/17 04:17:51;;;;;;;2.17;1.70;;;12.70;99.90;;;;;;5043522;28;20490;-51
2022/06/17 04:20:31;;;;;;;2.40;1.63;;;12.70;99.90;;;;;;5045852;28;20482;-52
2022/06/17 04:23:01;;;;;;;4.10;1.80;;;12.80;99.90;;;;;;5047073;28;20572;-52
2022/06/17 04:25:33;;;;;;;3.70;2.17;;;12.80;99.90;;;;;;5048213;28;20493;-51
2022/06/17 04:28:06;;;;;;;3.53;1.80;;;12.90;99.90;;;;;;5043046;28;20500;-52
2022/06/17 04:30:36;;;;;;;3.50;2.13;;;13.00;99.90;;;;;;5050469;28;20481;-51
2022/06/17 04:33:08;;;;;;;8.23;1.80;;;13.00;99.90;;;;;;5046717;28;20979;-52
2022/06/17 04:35:36;;;;;;;3.53;2.43;;;13.00;99.90;;;;;;5041188;28;20509;-50
2022/06/17 04:38:03;;;;;;;3.53;2.13;;;13.10;99.90;;;;;;5046900;28;20501;-51
2022/06/17 04:40:36;;;;;;;2.43;1.70;;;13.10;99.90;;;;;;5042595;28;20521;-51
2022/06/17 04:43:08;;;;;;;8.20;2.33;;;13.10;99.90;;;;;;5040627;28;20486;-52
2022/06/17 04:45:34;;;;;;;7.60;2.47;;;13.20;99.90;;;;;;5047625;28;20490;-51
2022/06/17 04:48:01;;;;;;;5.00;2.20;;;13.30;99.90;;;;;;5040440;28;20466;-52
2022/06/17 04:50:31;;;;;;;7.10;2.80;;;13.50;99.90;;;;;;5036797;28;20514;-52
2022/06/17 04:52:59;;;;;;;3.03;2.70;;;13.60;99.90;;;;;;5042918;28;20804;-53
2022/06/17 04:55:32;;;;;;;7.43;3.00;;;13.70;99.90;;;;;;5045122;28;20459;-52
2022/06/17 04:57:59;;;;;;;4.40;2.93;;;13.80;99.90;;;;;;5045260;28;20455;-51
2022/06/17 05:00:28;;;;;;;3.23;3.03;;;13.90;99.90;;;;;;5037943;28;20479;-51
2022/06/17 05:02:55;;;;;;;6.13;3.40;;;14.00;99.90;;;;;;5038899;28;21008;-52
2022/06/17 05:05:29;;;;;;;7.87;3.00;;;14.10;99.90;;;;;;5041369;28;20980;-51
2022/06/17 05:07:57;;;;;;;15.10;3.20;;;14.10;99.90;;;;;;5047597;28;20480;-51
2022/06/17 05:10:28;;;;;;;12.53;3.33;;;14.20;99.90;;;;;;5034331;28;20818;-51
2022/06/17 05:13:01;;;;;;;13.63;3.53;;;14.30;99.90;;;;;;5037286;28;20477;-52
2022/06/17 05:15:28;;;;;;;13.50;3.43;;;14.40;99.90;;;;;;5040491;28;20489;-53
2022/06/17 05:17:56;;;;;;;3.83;2.97;;;14.50;99.90;;;;;;5049505;28;20454;-51
2022/06/17 05:20:25;;;;;;;11.67;3.10;;;14.50;99.90;;;;;;5045911;28;20501;-51
2022/06/17 05:22:55;;;;;;;9.30;3.47;;;14.60;99.90;;;;;;5046828;28;20839;-51
2022/06/17 05:25:25;;;;;;;3.77;3.30;;;14.70;99.90;;;;;;5050417;28;20490;-52
2022/06/17 05:27:52;;;;;;;6.50;3.70;;;14.70;99.90;;;;;;5047950;28;20508;-52
2022/06/17 05:30:19;;;;;;;7.87;4.03;;;14.80;99.90;;;;;;5042335;28;20513;-52
2022/06/17 05:32:49;;;;;;;5.93;3.80;;;14.80;99.90;;;;;;5049602;28;20498;-52
2022/06/17 05:35:16;;;;;;;5.73;3.87;;;14.90;99.90;;;;;;5040622;28;20508;-52
2022/06/17 05:37:42;;;;;;;15.33;4.10;;;14.90;99.90;;;;;;5035177;28;20497;-52
2022/06/17 05:40:10;;;;;;;11.80;4.20;;;15.00;99.90;;;;;;5036158;28;20518;-51
2022/06/17 05:42:41;;;;;;;5.80;3.93;;;15.10;99.90;;;;;;5069446;22;20592;-48
2022/06/17 05:45:11;;;;;;;6.43;4.13;;;15.10;99.90;;;;;;5069860;28;20449;-49
2022/06/17 05:47:37;;;;;;;7.20;4.13;;;15.20;99.90;;;;;;5058429;28;20868;-48
2022/06/17 05:50:04;;;;;;;4.13;3.80;;;15.20;99.90;;;;;;5067920;28;20500;-49
2022/06/17 05:52:31;;;;;;;5.50;4.27;;;15.30;99.90;;;;;;5059324;28;20519;-48
2022/06/17 05:55:02;;;;;;;10.07;4.40;;;15.40;99.90;;;;;;5069670;28;20488;-48
2022/06/17 05:57:28;;;;;;;13.53;3.90;;;15.40;99.90;;;;;;5062075;28;20472;-48
2022/06/17 05:59:56;;;;;;;9.07;4.47;;;15.50;99.90;;;;;;5058027;28;20465;-49
2022/06/17 06:02:22;;;;;;;15.30;4.00;;;15.60;99.90;;;;;;5058417;28;21033;-49
2022/06/17 06:04:49;;;;;;;22.57;4.10;;;15.70;82.10;;;;;;5064464;28;20927;-50
2022/06/17 06:07:16;;;;;;;6.13;3.90;;;15.80;22.20;;;;;;5054937;28;20445;-49
2022/06/17 06:09:42;;;;;;;19.33;3.90;;;15.80;73.40;;;;;;5058832;28;20492;-49
2022/06/17 06:12:10;;;;;;;9.97;3.67;;;15.90;21.10;;;;;;5071310;28;20477;-48
2022/06/17 06:14:37;;;;;;;5.50;3.83;;;16.00;23.50;;;;;;5072599;28;20499;-49
2022/06/17 06:17:05;;;;;;;8.50;3.40;;;16.10;23.70;;;;;;5066325;28;20457;-50
2022/06/17 06:19:32;;;;;;;25.90;4.10;;;16.10;25.60;;;;;;5072162;28;20499;-50
2022/06/17 06:21:59;;;;;;;33.77;3.80;;;16.20;26.10;;;;;;5071421;28;20508;-49
2022/06/17 06:24:25;;;;;;;7.70;3.87;;;16.30;27.60;;;;;;5061365;28;20484;-49
2022/06/17 06:26:52;;;;;;;14.67;4.00;;;16.40;28.50;;;;;;5072958;28;20488;-49
2022/06/17 06:29:18;;;;;;;12.13;4.67;;;16.50;32.70;;;;;;5074666;28;20476;-50
2022/06/17 06:31:45;;;;;;;4.53;3.97;;;16.60;34.10;;;;;;5065293;28;20519;-49
2022/06/17 06:34:15;;;;;;;17.10;3.80;;;16.70;41.70;;;;;;5070750;28;20465;-49
2022/06/17 06:36:42;;;;;;;24.03;4.20;;;16.80;42.00;;;;;;5072581;28;20457;-49
2022/06/17 06:39:09;;;;;;;10.80;3.87;;;16.90;47.80;;;;;;5059473;28;20461;-49
2022/06/17 06:41:36;;;;;;;5.80;3.47;;;16.90;54.80;;;;;;5064282;28;20496;-49
2022/06/17 06:44:03;;;;;;;10.10;3.90;;;17.00;57.20;;;;;;5072344;28;20516;-49
2022/06/17 06:46:33;;;;;;;8.17;3.97;;;17.10;59.40;;;;;;5065048;28;20460;-49
2022/06/17 06:49:00;;;;;;;7.47;3.73;;;17.30;64.60;;;;;;5067344;28;20457;-50
2022/06/17 06:51:28;;;;;;;10.13;3.77;;;17.30;68.30;;;;;;5067326;28;20496;-49
2022/06/17 06:53:55;;;;;;;8.23;3.70;;;17.30;70.80;;;;;;5065617;28;20499;-49
2022/06/17 06:56:22;;;;;;;9.73;3.30;;;17.40;73.40;;;;;;5067975;28;20493;-53
2022/06/17 06:58:49;;;;;;;6.83;3.57;;;17.50;75.40;;;;;;5065783;28;20457;-55
2022/06/17 07:01:16;;;;;;;7.00;3.33;;;17.60;80.00;;;;;;5068804;28;20467;-54
2022/06/17 07:03:42;;;;;;;13.90;3.57;;;17.70;83.40;;;;;;5061640;28;20512;-55
2022/06/17 07:06:09;;;;;;;15.90;3.47;;;17.80;93.70;;;;;;5073068;28;20942;-53
2022/06/17 07:08:37;;;;;;;3.17;2.97;;;17.80;99.90;;;;;;5062533;28;21139;-55
2022/06/17 07:11:06;;;;;;;12.40;3.20;;;17.90;99.90;;;;;;5066006;28;20492;-55
2022/06/17 07:13:32;;;;;;;9.10;3.57;;;18.00;99.90;;;;;;5060848;28;20918;-56
2022/06/17 07:16:00;;;;;;;6.90;3.07;;;18.10;99.90;;;;;;5062997;28;20497;-54
2022/06/17 07:18:29;;;;;;;7.57;3.60;;;18.10;99.90;;;;;;5069285;28;20461;-55
2022/06/17 07:20:58;;;;;;;11.03;3.20;;;18.20;99.90;;;;;;5069712;28;20461;-56
2022/06/17 07:23:29;;;;;;;5.47;2.67;;;18.20;99.90;;;;;;5069310;28;20558;-55
2022/06/17 07:25:58;;;;;;;5.90;3.70;;;18.30;99.90;;;;;;5060374;28;20479;-54
2022/06/17 07:28:26;;;;;;;17.43;3.40;;;18.30;99.90;;;;;;5067583;28;20493;-55
2022/06/17 07:30:54;;;;;;;4.03;3.00;;;18.40;99.90;;;;;;5065392;28;20461;-54
2022/06/17 07:33:22;;;;;;;10.00;3.53;;;18.50;99.90;;;;;;5063888;28;20526;-54
2022/06/17 07:35:55;;;;;;;4.93;3.23;;;18.50;99.90;;;;;;5068392;28;20453;-54
2022/06/17 07:41:11;;;;;;;4.80;2.63;;;18.60;99.90;;;;;;5059397;28;20429;-55
2022/06/17 07:43:38;;;;;;;8.63;3.10;;;18.70;99.90;;;;;;5069103;28;20523;-55
2022/06/17 07:46:06;;;;;;;4.77;2.80;;;18.80;99.90;;;;;;5067436;28;20495;-54
2022/06/17 07:48:33;;;;;;;5.93;3.17;;;18.90;99.90;;;;;;5073532;28;20445;-54
2022/06/17 07:51:00;;;;;;;12.03;2.80;;;19.00;99.90;;;;;;5066847;28;20468;-54
2022/06/17 07:53:29;;;;;;;7.30;3.57;;;19.10;99.90;;;;;;5069362;28;20481;-54
2022/06/17 07:55:58;;;;;;;3.27;2.73;;;19.20;99.90;;;;;;5069427;28;20457;-54
2022/06/17 07:58:26;;;;;;;6.50;3.60;;;19.20;99.90;;;;;;5064582;28;20981;-55
2022/06/17 08:00:55;;;;;;;8.70;3.30;;;19.20;99.90;;;;;;5062733;28;20998;-56
2022/06/17 08:03:22;;;;;;;5.50;2.63;;;19.40;99.90;;;;;;5056520;28;20511;-54
2022/06/17 08:05:52;;;;;;;9.30;4.77;;;19.50;99.90;;;;;;5054847;28;20924;-55
2022/06/17 08:08:22;;;;;;;6.07;3.73;;;19.60;99.90;;;;;;5061228;28;20978;-55
2022/06/17 08:10:50;;;;;;;9.83;2.63;;;19.50;99.90;;;;;;5061499;28;20460;-54
2022/06/17 08:13:17;;;;;;;3.70;3.30;;;19.60;99.90;;;;;;5061608;28;20512;-55
2022/06/17 08:15:45;;;;;;;8.70;2.20;;;19.60;99.90;;;;;;5058212;28;24084;-55
2022/06/17 08:18:12;;;;;;;3.13;2.10;;;19.70;99.90;;;;;;5056678;28;20457;-55
2022/06/17 08:20:38;;;;;;;2.10;1.90;;;19.80;99.90;;;;;;5063610;28;20466;-55
2022/06/17 08:23:07;;;;;;;4.03;2.00;;;19.80;99.90;;;;;;5056443;28;20649;-56
2022/06/17 08:25:35;;;;;;;6.70;2.87;;;19.90;99.90;;;;;;5060907;28;20450;-54
2022/06/17 08:28:04;;;;;;;3.07;1.97;;;20.00;99.90;;;;;;5061519;28;20497;-56
2022/06/17 08:30:34;;;;;;;4.10;1.70;;;20.00;99.90;;;;;;5067169;28;20496;-54
2022/06/17 08:33:03;;;;;;;7.10;2.43;;;20.10;99.90;;;;;;5060339;28;20563;-55
2022/06/17 08:35:32;;;;;;;1.70;1.53;;;20.20;99.90;;;;;;5054186;28;20461;-54
2022/06/17 08:38:02;;;;;;;2.73;1.40;;;20.20;1.40;;;;;;5060689;28;20544;-55
2022/06/17 08:40:44;;;;;;;1.70;1.60;;;20.30;99.90;;;;;;5061700;28;20465;-54
2022/06/17 08:43:38;;;;;;;5.80;2.10;;;20.40;99.90;;;;;;5057863;28;20488;-55
2022/06/17 08:46:14;;;;;;;8.57;1.80;;;20.40;99.90;;;;;;5065562;28;20503;-55
2022/06/17 08:49:05;;;;;;;2.23;2.10;;;20.50;99.90;;;;;;5068322;28;20453;-54
2022/06/17 08:51:48;;;;;;;6.10;2.37;;;20.50;99.90;;;;;;5055758;28;20485;-54
2022/06/17 08:54:28;;;;;;;4.20;2.10;;;20.60;99.90;;;;;;5060860;28;20476;-54
2022/06/17 08:57:01;;;;;;;4.93;2.63;;;20.70;99.90;;;;;;5060473;28;20559;-55
2022/06/17 08:59:44;;;;;;;4.33;1.90;;;20.90;99.90;;;;;;5059240;28;20492;-55
2022/06/17 09:02:19;;;;;;;1.73;1.57;;;21.00;99.90;;;;;;5064343;28;20627;-55
2022/06/17 09:05:01;;;;;;;6.13;2.20;;;21.20;99.90;;;;;;5059742;28;20523;-54
2022/06/17 09:07:38;;;;;;;4.80;2.07;;;21.30;99.90;;;;;;5059775;28;20896;-54
2022/06/17 09:10:14;;;;;;;6.57;1.83;;;21.40;99.90;;;;;;5054551;28;20488;-54
2022/06/17 09:12:51;;;;;;;6.17;1.70;;;21.50;99.90;;;;;;5061743;28;20473;-55
2022/06/17 09:15:26;;;;;;;5.03;1.77;;;21.60;99.90;;;;;;5064021;28;20484;-54
2022/06/17 09:17:59;;;;;;;4.70;1.57;;;21.60;99.90;;;;;;5060557;28;20488;-55
2022/06/17 09:20:33;;;;;;;2.50;1.50;;;21.70;99.90;;;;;;5057296;28;20495;-55
2022/06/17 09:23:03;;;;;;;8.30;1.40;;;21.70;99.90;;;;;;5062410;28;20535;-54
2022/06/17 09:25:35;;;;;;;3.90;1.00;;;21.60;99.90;;;;;;5056116;28;20468;-55
2022/06/17 09:28:03;;;;;;;4.67;1.53;;;21.70;99.90;;;;;;5064379;28;20969;-55
2022/06/17 09:30:34;;;;;;;2.77;1.20;;;21.80;99.90;;;;;;5058964;28;20484;-55
2022/06/17 09:33:08;;;;;;;5.40;1.40;;;21.90;99.90;;;;;;5061504;28;20519;-55
2022/06/17 09:35:40;;;;;;;7.93;1.93;;;21.90;99.90;;;;;;5061928;28;20628;-55
2022/06/17 09:38:11;;;;;;;2.63;1.37;;;22.00;99.90;;;;;;5066456;28;20488;-54
2022/06/17 09:40:41;;;;;;;1.37;1.27;;;22.10;99.90;;;;;;5062400;28;20492;-54
2022/06/17 09:43:13;;;;;;;2.03;1.00;;;22.20;99.90;;;;;;5052692;28;20547;-54
2022/06/17 09:45:45;;;;;;;4.83;1.67;;;22.30;99.90;;;;;;5063513;28;21001;-55
2022/06/17 09:48:16;;;;;;;8.13;1.50;;;22.40;99.90;;;;;;5064343;28;20500;-55
2022/06/17 09:50:47;;;;;;;0.90;0.90;;;22.40;99.90;;;;;;5064024;28;20460;-54
2022/06/17 09:53:18;;;;;;;3.30;1.10;;;22.40;99.90;;;;;;5062929;28;21148;-54
2022/06/17 09:55:49;;;;;;;0.97;0.90;;;22.40;99.90;;;;;;5059772;28;20511;-54
2022/06/17 09:58:22;;;;;;;1.03;1.00;;;22.50;99.90;;;;;;5061658;28;20897;-55
2022/06/17 10:00:53;;;;;;;1.10;1.00;;;22.60;99.90;;;;;;5060019;28;20553;-55
2022/06/17 10:03:23;;;;;;;1.03;0.70;;;22.60;99.90;;;;;;5067066;28;20541;-54
2022/06/17 10:06:10;;;;;;;2.10;0.90;;;22.60;99.90;;;;;;5067163;28;20876;-54
2022/06/17 10:08:50;;;;;;;2.97;0.93;;;22.60;99.90;;;;;;5067555;28;20461;-54
2022/06/17 10:11:22;;;;;;;2.83;0.90;;;22.70;99.90;;;;;;5062749;28;20496;-55
2022/06/17 10:13:58;;;;;;;3.30;0.80;;;22.80;99.90;;;;;;5065290;28;20904;-55
2022/06/17 10:19:28;;;;;;;1.30;1.23;;;22.90;99.90;;;;;;5063511;28;20441;-54
2022/06/17 10:22:11;;;;;;;1.00;0.90;;;23.00;99.90;;;;;;5067135;28;20535;-54
2022/06/17 10:24:51;;;;;;;6.03;1.20;;;23.10;99.90;;;;;;5064802;28;20599;-54
2022/06/17 10:27:31;;;;;;;1.17;1.00;;;23.00;99.90;;;;;;5066147;28;20518;-54
2022/06/17 10:30:03;;;;;;;1.10;1.10;;;23.20;99.90;;;;;;5065592;28;20480;-55
2022/06/17 10:32:33;;;;;;;1.50;1.13;;;23.30;99.90;;;;;;5062367;28;20476;-54
2022/06/17 10:35:02;;;;;;;1.47;1.00;;;23.30;99.90;;;;;;5065365;28;20527;-55
2022/06/17 10:37:34;;;;;;;1.33;1.00;;;23.30;99.90;;;;;;5065299;28;20555;-54
2022/06/17 10:40:02;;;;;;;6.50;1.17;;;23.30;99.90;;;;;;5063381;28;20484;-54
2022/06/17 10:42:30;;;;;;;4.17;1.50;;;23.10;99.90;;;;;;5063648;28;20551;-54
2022/06/17 10:45:01;;;;;;;3.50;1.10;;;23.20;99.90;;;;;;5061548;28;20524;-54
2022/06/17 10:47:40;;;;;;;1.17;1.00;;;23.30;99.90;;;;;;5060610;28;20482;-53
2022/06/17 10:50:18;;;;;;;1.30;1.20;;;23.30;99.90;;;;;;5058736;28;20480;-54
2022/06/17 10:52:50;;;;;;;1.37;1.13;;;23.40;99.90;;;;;;5057414;28;20473;-54
2022/06/17 10:55:20;;;;;;;4.70;1.07;;;23.60;99.90;;;;;;5059663;28;20452;-54
2022/06/17 10:58:12;;;;;;;0.90;0.67;;;23.80;99.90;;;;;;5059132;28;20814;-54
2022/06/17 11:00:44;;;;;;;1.83;0.93;;;23.80;99.90;;;;;;5064259;28;20545;-54
2022/06/17 11:03:22;;;;;;;4.43;1.33;;;23.90;99.90;;;;;;5057136;28;20534;-54
2022/06/17 11:05:55;;;;;;;3.20;1.30;;;24.10;99.90;;;;;;5062792;28;20461;-55
2022/06/17 11:08:26;;;;;;;9.00;1.03;;;24.20;99.90;;;;;;5058547;28;20456;-54
2022/06/17 11:10:55;;;;;;;2.90;1.20;;;24.20;99.90;;;;;;5068435;28;20491;-54
2022/06/17 11:13:22;;;;;;;2.40;1.00;;;24.30;99.90;;;;;;5059674;28;20477;-54
2022/06/17 11:15:54;;;;;;;4.20;1.37;;;24.30;99.90;;;;;;5062278;28;20457;-55
2022/06/17 11:18:24;;;;;;;3.30;1.13;;;24.30;99.90;;;;;;5068787;28;20500;-55
2022/06/17 11:20:57;;;;;;;1.47;0.90;;;24.40;99.90;;;;;;5063249;28;20492;-54
2022/06/17 11:23:29;;;;;;;2.23;1.00;;;24.50;99.90;;;;;;5061580;28;20489;-53
2022/06/17 11:26:09;;;;;;;1.57;1.27;;;24.50;99.90;;;;;;5055447;28;20493;-53
2022/06/17 11:28:37;;;;;;;1.90;1.27;;;24.50;99.90;;;;;;5058564;28;20457;-53
2022/06/17 11:31:06;;;;;;;3.40;1.43;;;24.50;99.90;;;;;;5066535;28;20500;-53
2022/06/17 11:33:39;;;;;;;2.27;0.87;;;24.50;99.90;;;;;;5064340;28;20505;-53
2022/06/17 11:36:18;;;;;;;2.23;0.90;;;24.50;99.90;;;;;;5068812;28;20544;-53
2022/06/17 11:38:47;;;;;;;1.17;1.07;;;24.50;99.90;;;;;;5062292;28;20568;-54
2022/06/17 11:41:21;;;;;;;0.97;0.90;;;24.60;99.90;;;;;;5062820;28;20461;-53
2022/06/17 11:43:48;;;;;;;1.87;1.03;;;24.70;99.90;;;;;;5066162;28;20545;-50
2022/06/17 11:46:17;;;;;;;1.10;0.83;;;24.50;99.90;;;;;;5064796;28;20462;-49
2022/06/17 11:48:47;;;;;;;5.03;0.90;;;24.70;99.90;;;;;;5064270;28;20472;-50
2022/06/17 11:51:16;;;;;;;2.40;0.80;;;24.70;99.90;;;;;;5052604;28;20674;-49
2022/06/17 11:53:47;;;;;;;1.90;1.27;;;24.70;99.90;;;;;;5067642;28;20477;-50
2022/06/17 11:56:31;;;;;;;1.27;1.17;;;24.60;99.90;;;;;;5064854;28;20990;-51
2022/06/17 11:59:02;;;;;;;1.33;0.90;;;24.70;99.90;;;;;;5064456;28;20460;-50
2022/06/17 12:01:29;;;;;;;1.83;1.50;;;24.80;99.90;;;;;;5065954;28;20492;-50
2022/06/17 12:03:56;;;;;;;0.90;0.90;;;24.90;99.90;;;;;;5062941;28;20492;-50
2022/06/17 12:06:27;;;;;;;1.00;0.87;;;25.00;99.90;;;;;;5060682;28;20461;-50
2022/06/17 12:09:02;;;;;;;7.63;1.20;;;24.90;99.90;;;;;;5058919;28;20465;-50
2022/06/17 12:11:37;;;;;;;1.50;0.97;;;24.90;99.90;;;;;;5059295;28;21036;-50
2022/06/17 12:14:10;;;;;;;2.17;0.87;;;24.90;99.90;;;;;;5067035;28;20484;-50
2022/06/17 12:16:40;;;;;;;1.13;0.67;;;24.90;99.90;;;;;;5055977;28;20877;-50
2022/06/17 12:19:12;;;;;;;1.50;1.40;;;24.90;99.90;;;;;;5066773;28;20493;-50
2022/06/17 12:21:47;;;;;;;1.10;0.90;;;24.90;99.90;;;;;;5066840;28;20456;-50
2022/06/17 12:24:23;;;;;;;0.80;0.80;;;24.90;99.90;;;;;;5059934;28;20527;-50
2022/06/17 12:26:58;;;;;;;1.10;0.93;;;25.10;99.90;;;;;;5059045;28;20540;-49
2022/06/17 12:29:32;;;;;;;3.80;0.80;;;25.10;99.90;;;;;;5063027;28;20484;-50
2022/06/17 12:32:04;;;;;;;1.00;1.00;;;25.20;99.90;;;;;;5061979;28;20485;-49
2022/06/17 12:34:38;;;;;;;0.63;0.63;;;25.40;99.90;;;;;;5056630;28;20504;-50
2022/06/17 12:37:11;;;;;;;2.97;0.77;;;25.10;99.90;;;;;;5064992;28;20495;-50
2022/06/17 12:39:47;;;;;;;2.10;1.20;;;25.20;99.90;;;;;;5059128;28;20481;-50
2022/06/17 12:42:22;;;;;;;3.70;1.20;;;25.10;99.90;;;;;;5060616;28;20983;-50
2022/06/17 12:45:00;;;;;;;1.17;1.07;;;25.20;99.90;;;;;;5058136;28;20512;-49
2022/06/17 12:47:36;;;;;;;0.90;0.70;;;25.20;99.90;;;;;;5059674;28;20492;-50
2022/06/17 12:53:15;;;;;;;2.80;1.30;;;25.20;99.90;;;;;;5053260;28;20527;-49
2022/06/17 12:55:57;;;;;;;0.80;0.80;;;25.20;99.90;;;;;;5061356;28;20530;-50
2022/06/17 12:58:35;;;;;;;1.30;1.20;;;25.10;99.90;;;;;;5065984;28;20461;-50
2022/06/17 13:01:07;;;;;;;1.17;1.00;;;25.10;99.90;;;;;;5057190;28;20469;-50
2022/06/17 13:04:01;;;;;;;8.47;1.00;;;25.10;99.90;;;;;;5061165;28;20506;-50
2022/06/17 13:06:39;;;;;;;1.03;1.00;;;25.20;99.90;;;;;;5061904;28;21069;-49
2022/06/17 13:09:12;;;;;;;3.17;0.90;;;25.20;99.90;;;;;;5061751;28;20514;-50
2022/06/17 13:11:48;;;;;;;1.23;0.83;;;25.20;99.90;;;;;;5055890;28;20494;-50
2022/06/17 13:14:24;;;;;;;0.90;0.90;;;25.20;99.90;;;;;;5061220;28;20504;-49